Time;durP1;ratioP1;P1;durP2;ratioP2;P2;SDS_P1;SDS_P2;PMS_P1;PMS_P2;Temp;Humidity;BMP_temperature;BMP_pressure;BME280_temperature;BME280_humidity;BME280_pressure;Samples;Min_cycle;Max_cycle;Signal;HPM_P1;HPM_P2
2022/01/17 00:00:01;;;;;;;381.67;180.65;;;;;;;;;;4994304;28;20031;-64
2022/01/17 00:02:30;;;;;;;337.45;157.20;;;;;;;;;;4994362;28;20470;-62
2022/01/17 00:04:57;;;;;;;455.25;216.60;;;;;;;;;;4996254;28;20442;-63
2022/01/17 00:07:29;;;;;;;482.70;238.50;;;;;;;;;;5000666;28;20033;-62
2022/01/17 00:09:55;;;;;;;464.83;229.88;;;;;;;;;;4981448;28;20063;-62
2022/01/17 00:12:22;;;;;;;463.95;233.13;;;;;;;;;;4980969;28;20510;-62
2022/01/17 00:14:48;;;;;;;486.00;234.77;;;;;;;;;;4981227;28;20039;-64
2022/01/17 00:19:43;;;;;;;442.35;224.43;;;;;;;;;;4981164;28;20031;-63
2022/01/17 00:22:10;;;;;;;439.05;216.82;;;;;;;;;;4980570;28;20567;-63
2022/01/17 00:24:36;;;;;;;437.63;209.27;;;;;;;;;;4981090;28;20035;-62
2022/01/17 00:27:02;;;;;;;436.17;209.27;;;;;;;;;;4980988;28;20027;-61
2022/01/17 00:29:29;;;;;;;417.88;204.68;;;;;;;;;;4980891;28;20019;-62
2022/01/17 00:31:55;;;;;;;396.08;189.65;;;;;;;;;;4980779;28;20030;-63
2022/01/17 00:34:22;;;;;;;332.02;155.43;;;;;;;;;;4981109;28;20539;-62
2022/01/17 00:36:48;;;;;;;405.42;191.38;;;;;;;;;;4980759;28;20027;-63
2022/01/17 00:39:14;;;;;;;442.10;209.73;;;;;;;;;;4980484;28;20476;-62
2022/01/17 00:41:41;;;;;;;464.50;221.18;;;;;;;;;;4980995;28;20023;-62
2022/01/17 00:44:07;;;;;;;448.48;211.75;;;;;;;;;;4980511;28;20082;-62
2022/01/17 00:46:33;;;;;;;396.08;182.65;;;;;;;;;;4980211;28;20467;-63
2022/01/17 00:49:00;;;;;;;398.77;181.98;;;;;;;;;;4980824;28;20133;-62
2022/01/17 00:51:26;;;;;;;365.45;169.45;;;;;;;;;;4980539;28;20054;-63
2022/01/17 00:53:53;;;;;;;338.30;160.77;;;;;;;;;;4981266;28;20027;-63
2022/01/17 00:56:19;;;;;;;341.85;156.07;;;;;;;;;;4980819;28;20023;-63
2022/01/17 00:58:46;;;;;;;342.10;154.05;;;;;;;;;;4980733;28;20030;-63
2022/01/17 01:01:12;;;;;;;321.08;142.30;;;;;;;;;;4981135;28;20057;-63
2022/01/17 01:03:38;;;;;;;298.08;137.65;;;;;;;;;;4980441;28;20027;-63
2022/01/17 01:06:05;;;;;;;294.10;135.15;;;;;;;;;;4980333;28;20018;-64
2022/01/17 01:08:31;;;;;;;269.75;122.93;;;;;;;;;;4990012;28;20399;-62
2022/01/17 01:10:57;;;;;;;274.08;119.50;;;;;;;;;;5000120;28;20026;-61
2022/01/17 01:13:27;;;;;;;301.58;133.27;;;;;;;;;;4999942;28;20386;-64
2022/01/17 01:29:23;;;;;;;313.42;134.50;;;;;;;;;;4996325;28;20440;-62
2022/01/17 01:31:58;;;;;;;196.98;92.60;;;;;;;;;;4996602;28;20019;-63
2022/01/17 01:34:38;;;;;;;195.07;86.03;;;;;;;;;;4996665;28;20029;-63
2022/01/17 01:37:05;;;;;;;177.03;83.17;;;;;;;;;;4997181;28;20023;-64
2022/01/17 01:39:31;;;;;;;184.98;81.47;;;;;;;;;;4996451;28;20450;-63
2022/01/17 01:41:58;;;;;;;321.90;147.80;;;;;;;;;;4996799;28;20113;-63
2022/01/17 01:44:25;;;;;;;357.52;164.40;;;;;;;;;;4996587;28;20031;-63
2022/01/17 01:46:52;;;;;;;315.23;147.15;;;;;;;;;;4996381;28;20022;-63
2022/01/17 01:49:19;;;;;;;339.77;156.35;;;;;;;;;;4996523;28;20113;-62
2022/01/17 01:51:45;;;;;;;327.63;153.95;;;;;;;;;;4996481;28;20087;-63
2022/01/17 01:54:13;;;;;;;329.30;153.38;;;;;;;;;;4996137;28;20026;-62
2022/01/17 01:56:41;;;;;;;266.65;120.00;;;;;;;;;;4996434;28;20029;-62
2022/01/17 01:59:07;;;;;;;264.48;119.45;;;;;;;;;;4996352;28;20037;-64
2022/01/17 02:01:34;;;;;;;265.08;121.13;;;;;;;;;;4996002;28;20407;-63
2022/01/17 02:04:00;;;;;;;282.02;125.80;;;;;;;;;;4996400;28;20026;-62
2022/01/17 02:06:26;;;;;;;291.25;133.85;;;;;;;;;;4996194;28;20019;-64
2022/01/17 02:08:53;;;;;;;241.52;105.85;;;;;;;;;;4995910;28;20053;-62
2022/01/17 02:11:19;;;;;;;174.95;78.93;;;;;;;;;;4996317;28;20105;-63
2022/01/17 02:13:46;;;;;;;137.32;64.85;;;;;;;;;;4996279;28;20105;-63
2022/01/17 02:16:16;;;;;;;134.00;61.58;;;;;;;;;;4995443;28;20045;-62
2022/01/17 02:18:43;;;;;;;137.05;62.03;;;;;;;;;;4996010;28;20467;-62
2022/01/17 02:21:17;;;;;;;145.25;62.38;;;;;;;;;;4995869;28;20455;-63
2022/01/17 02:23:44;;;;;;;127.68;61.03;;;;;;;;;;4995633;28;20034;-64
2022/01/17 02:26:11;;;;;;;125.72;55.85;;;;;;;;;;4995836;28;20030;-63
2022/01/17 02:28:37;;;;;;;119.55;56.53;;;;;;;;;;4994318;28;20045;-64
2022/01/17 02:31:05;;;;;;;126.68;58.10;;;;;;;;;;4995801;28;20025;-63
2022/01/17 02:33:31;;;;;;;124.55;57.63;;;;;;;;;;4995551;28;20030;-63
2022/01/17 02:35:58;;;;;;;119.32;58.40;;;;;;;;;;4995302;28;20037;-61
2022/01/17 02:38:24;;;;;;;132.30;62.25;;;;;;;;;;4995992;28;20094;-62
2022/01/17 02:40:51;;;;;;;153.57;70.75;;;;;;;;;;4995547;28;20033;-61
2022/01/17 02:43:18;;;;;;;179.25;76.53;;;;;;;;;;4994831;28;20041;-62
2022/01/17 02:48:17;;;;;;;206.82;93.00;;;;;;;;;;4995466;28;20031;-62
2022/01/17 02:50:43;;;;;;;217.10;99.63;;;;;;;;;;4995072;28;20030;-63
2022/01/17 02:53:09;;;;;;;215.88;99.07;;;;;;;;;;4995249;28;20029;-63
2022/01/17 02:55:36;;;;;;;208.00;94.88;;;;;;;;;;4995288;28;20215;-62
2022/01/17 02:58:03;;;;;;;226.93;105.50;;;;;;;;;;4994751;28;20027;-63
2022/01/17 03:00:29;;;;;;;240.50;111.38;;;;;;;;;;4995218;28;20598;-62
2022/01/17 03:02:55;;;;;;;218.98;101.90;;;;;;;;;;4994960;28;20030;-62
2022/01/17 03:05:22;;;;;;;143.43;65.65;;;;;;;;;;4994719;28;20031;-62
2022/01/17 03:07:49;;;;;;;134.20;65.07;;;;;;;;;;4994808;28;20077;-63
2022/01/17 03:13:04;;;;;;;134.38;62.72;;;;;;;;;;4995031;28;20042;-62
2022/01/17 03:15:30;;;;;;;128.68;59.67;;;;;;;;;;4994669;28;20030;-62
2022/01/17 03:17:57;;;;;;;120.90;57.40;;;;;;;;;;4994348;28;20467;-62
2022/01/17 03:20:23;;;;;;;115.88;54.05;;;;;;;;;;4994937;28;20026;-63
2022/01/17 03:22:49;;;;;;;108.35;51.30;;;;;;;;;;4994838;28;20367;-62
2022/01/17 03:25:15;;;;;;;114.20;51.70;;;;;;;;;;4994454;28;20030;-62
2022/01/17 03:27:41;;;;;;;108.45;51.17;;;;;;;;;;4994767;28;20092;-62
2022/01/17 03:30:08;;;;;;;118.53;52.15;;;;;;;;;;4994667;28;20370;-62
2022/01/17 03:32:34;;;;;;;112.68;52.30;;;;;;;;;;4994081;28;20058;-62
2022/01/17 03:35:00;;;;;;;114.38;53.53;;;;;;;;;;4994413;28;20481;-63
2022/01/17 03:37:27;;;;;;;118.28;54.00;;;;;;;;;;4994846;28;20434;-61
2022/01/17 03:39:53;;;;;;;117.20;50.47;;;;;;;;;;4993944;28;20077;-61
2022/01/17 03:42:19;;;;;;;106.55;49.70;;;;;;;;;;4994220;28;20383;-63
2022/01/17 03:44:46;;;;;;;95.22;42.83;;;;;;;;;;4994188;28;20034;-63
2022/01/17 03:47:12;;;;;;;93.75;45.33;;;;;;;;;;4994146;28;20101;-61
2022/01/17 03:49:39;;;;;;;96.32;46.05;;;;;;;;;;4994240;28;20023;-62
2022/01/17 03:52:05;;;;;;;103.90;47.13;;;;;;;;;;4994104;28;20026;-62
2022/01/17 03:54:32;;;;;;;99.78;45.47;;;;;;;;;;4994642;28;20026;-62
2022/01/17 03:56:59;;;;;;;98.80;45.08;;;;;;;;;;4994051;28;20033;-62
2022/01/17 03:59:25;;;;;;;92.68;44.25;;;;;;;;;;4994139;28;20125;-61
2022/01/17 04:01:51;;;;;;;104.97;47.47;;;;;;;;;;4994005;28;20031;-61
2022/01/17 04:04:18;;;;;;;103.72;47.63;;;;;;;;;;4993846;28;20533;-61
2022/01/17 04:06:44;;;;;;;102.53;49.92;;;;;;;;;;4993914;28;20022;-62
2022/01/17 04:09:11;;;;;;;136.32;64.25;;;;;;;;;;4994121;28;20480;-62
2022/01/17 04:11:37;;;;;;;148.48;71.93;;;;;;;;;;4994256;28;20022;-62
2022/01/17 04:14:05;;;;;;;152.88;70.38;;;;;;;;;;4993787;28;20022;-63
2022/01/17 04:16:31;;;;;;;155.20;71.07;;;;;;;;;;4993822;28;20471;-61
2022/01/17 04:18:58;;;;;;;144.57;69.32;;;;;;;;;;4994008;28;20427;-62
2022/01/17 04:21:30;;;;;;;137.52;60.92;;;;;;;;;;4993712;28;20018;-62
2022/01/17 04:23:56;;;;;;;137.63;61.42;;;;;;;;;;4993794;28;20180;-62
2022/01/17 04:26:22;;;;;;;114.28;54.70;;;;;;;;;;4993858;28;20045;-62
2022/01/17 04:28:48;;;;;;;111.25;51.13;;;;;;;;;;4976236;28;20029;-61
2022/01/17 04:31:15;;;;;;;101.05;48.47;;;;;;;;;;4993775;28;20072;-63
2022/01/17 04:33:41;;;;;;;113.75;51.83;;;;;;;;;;4993842;28;20480;-62
2022/01/17 04:36:10;;;;;;;93.30;45.47;;;;;;;;;;4993520;28;20459;-63
2022/01/17 04:38:37;;;;;;;96.38;45.75;;;;;;;;;;4993895;28;20467;-63
2022/01/17 04:41:12;;;;;;;98.35;43.33;;;;;;;;;;4993474;28;20030;-63
2022/01/17 04:46:05;;;;;;;80.18;40.05;;;;;;;;;;4993714;28;20036;-64
2022/01/17 04:48:31;;;;;;;85.95;40.15;;;;;;;;;;4993101;28;20022;-62
2022/01/17 04:51:01;;;;;;;87.28;40.42;;;;;;;;;;4993181;28;20026;-63
2022/01/17 04:53:28;;;;;;;79.80;38.00;;;;;;;;;;4995109;28;20030;-63
2022/01/17 04:55:54;;;;;;;96.82;48.85;;;;;;;;;;4994990;28;20031;-62
2022/01/17 04:58:20;;;;;;;101.57;46.50;;;;;;;;;;4995270;28;20471;-62
2022/01/17 05:00:47;;;;;;;122.43;56.63;;;;;;;;;;4995465;28;20023;-63
2022/01/17 05:03:20;;;;;;;126.70;57.22;;;;;;;;;;4996813;28;20375;-62
2022/01/17 05:05:47;;;;;;;137.00;61.85;;;;;;;;;;4996924;28;20035;-63
2022/01/17 05:08:13;;;;;;;158.18;69.60;;;;;;;;;;4996904;28;20054;-62
2022/01/17 05:10:42;;;;;;;131.95;61.92;;;;;;;;;;4996627;28;20100;-62
2022/01/17 05:13:10;;;;;;;135.35;61.42;;;;;;;;;;4997213;28;20081;-62
2022/01/17 05:16:05;;;;;;;145.73;65.05;;;;;;;;;;4996668;28;20410;-62
2022/01/17 05:21:04;;;;;;;134.68;62.70;;;;;;;;;;4996997;28;20030;-63
2022/01/17 05:23:30;;;;;;;134.13;64.85;;;;;;;;;;4996367;28;20032;-64
2022/01/17 05:25:56;;;;;;;209.68;87.28;;;;;;;;;;4996967;28;20023;-61
2022/01/17 05:28:22;;;;;;;215.20;89.40;;;;;;;;;;4996702;28;20082;-64
2022/01/17 05:30:48;;;;;;;196.02;86.90;;;;;;;;;;4978991;28;20466;-62
2022/01/17 05:33:14;;;;;;;143.18;65.35;;;;;;;;;;4996472;28;20022;-62
2022/01/17 05:35:41;;;;;;;125.00;61.63;;;;;;;;;;4996668;28;20037;-62
2022/01/17 05:38:07;;;;;;;125.85;59.53;;;;;;;;;;4995772;28;20030;-62
2022/01/17 05:40:33;;;;;;;120.28;56.88;;;;;;;;;;4996747;28;20028;-62
2022/01/17 05:42:59;;;;;;;128.27;60.67;;;;;;;;;;4996927;28;20023;-63
2022/01/17 05:45:25;;;;;;;120.72;57.75;;;;;;;;;;4995763;28;20038;-62
2022/01/17 05:47:51;;;;;;;131.48;60.30;;;;;;;;;;4996530;28;20030;-62
2022/01/17 05:50:18;;;;;;;148.45;67.25;;;;;;;;;;4996265;28;20026;-62
2022/01/17 05:52:44;;;;;;;134.63;67.38;;;;;;;;;;4996312;28;20022;-62
2022/01/17 05:55:12;;;;;;;162.07;78.35;;;;;;;;;;4995715;28;20106;-63
2022/01/17 05:57:38;;;;;;;146.88;71.07;;;;;;;;;;4996320;28;20033;-62
2022/01/17 06:00:06;;;;;;;144.05;68.32;;;;;;;;;;4995766;28;20033;-61
2022/01/17 06:02:32;;;;;;;180.82;80.78;;;;;;;;;;4993777;28;20130;-62
2022/01/17 06:04:58;;;;;;;165.55;80.50;;;;;;;;;;4994461;28;20038;-62
2022/01/17 06:07:24;;;;;;;167.70;79.38;;;;;;;;;;4994599;28;20076;-63
2022/01/17 06:09:51;;;;;;;172.85;78.47;;;;;;;;;;4995067;28;20076;-65
2022/01/17 06:12:17;;;;;;;172.70;80.20;;;;;;;;;;4995725;28;20033;-62
2022/01/17 06:14:43;;;;;;;176.43;84.25;;;;;;;;;;4977113;28;20472;-63
2022/01/17 06:17:09;;;;;;;441.48;186.07;;;;;;;;;;4995421;28;20026;-62
2022/01/17 06:19:36;;;;;;;210.55;93.57;;;;;;;;;;4995902;28;20034;-63
2022/01/17 06:22:02;;;;;;;212.27;96.90;;;;;;;;;;4995942;28;20054;-63
2022/01/17 06:24:28;;;;;;;181.40;84.40;;;;;;;;;;4996054;28;20030;-63
2022/01/17 06:26:55;;;;;;;186.95;91.07;;;;;;;;;;4978165;28;20379;-63
2022/01/17 06:29:21;;;;;;;190.85;91.63;;;;;;;;;;4994983;28;20030;-63
2022/01/17 06:31:47;;;;;;;210.63;104.75;;;;;;;;;;4994561;28;20034;-63
2022/01/17 06:34:13;;;;;;;247.77;116.43;;;;;;;;;;4994153;28;20113;-62
2022/01/17 06:36:43;;;;;;;248.10;122.35;;;;;;;;;;4995134;28;20031;-62
2022/01/17 06:39:11;;;;;;;190.18;85.50;;;;;;;;;;4995217;28;20034;-62
2022/01/17 06:41:37;;;;;;;172.57;83.88;;;;;;;;;;4994559;28;20502;-62
2022/01/17 06:44:04;;;;;;;176.05;85.15;;;;;;;;;;4994937;28;20077;-61
2022/01/17 06:46:30;;;;;;;163.15;80.28;;;;;;;;;;4995196;28;20038;-62
2022/01/17 06:48:56;;;;;;;176.10;82.65;;;;;;;;;;4995177;28;20023;-62
2022/01/17 06:51:22;;;;;;;153.07;75.90;;;;;;;;;;4995365;28;20422;-63
2022/01/17 06:53:50;;;;;;;159.05;75.22;;;;;;;;;;4995455;28;20026;-63
2022/01/17 06:56:16;;;;;;;159.68;77.07;;;;;;;;;;4994685;28;20451;-60
2022/01/17 06:58:44;;;;;;;179.77;79.32;;;;;;;;;;4994982;28;20022;-63
2022/01/17 07:01:11;;;;;;;178.75;83.15;;;;;;;;;;4994729;28;20101;-60
2022/01/17 07:03:37;;;;;;;187.23;87.55;;;;;;;;;;4995236;28;20034;-63
2022/01/17 07:06:04;;;;;;;202.23;93.18;;;;;;;;;;4994646;28;20498;-62
2022/01/17 07:08:30;;;;;;;207.75;91.38;;;;;;;;;;4994089;28;20042;-63
2022/01/17 07:10:56;;;;;;;200.77;91.32;;;;;;;;;;4994929;28;20375;-65
2022/01/17 07:13:22;;;;;;;229.02;103.40;;;;;;;;;;4995302;28;20019;-62
2022/01/17 07:15:48;;;;;;;220.18;101.55;;;;;;;;;;4993933;28;20027;-62
2022/01/17 07:18:15;;;;;;;211.52;97.95;;;;;;;;;;4995239;28;20029;-64
2022/01/17 07:20:41;;;;;;;199.32;95.05;;;;;;;;;;4994860;28;20073;-63
2022/01/17 07:23:07;;;;;;;198.38;93.97;;;;;;;;;;4994206;28;20344;-62
2022/01/17 07:25:38;;;;;;;197.77;92.72;;;;;;;;;;4994996;28;20040;-63
2022/01/17 07:28:04;;;;;;;188.48;91.80;;;;;;;;;;4995016;28;20076;-63
2022/01/17 07:30:30;;;;;;;197.75;94.85;;;;;;;;;;4993583;28;20048;-63
2022/01/17 07:32:57;;;;;;;193.55;96.45;;;;;;;;;;4993648;28;20030;-61
2022/01/17 07:35:23;;;;;;;195.50;98.00;;;;;;;;;;4993927;28;20544;-61
2022/01/17 07:37:49;;;;;;;204.98;103.00;;;;;;;;;;4993891;28;20021;-62
2022/01/17 07:40:15;;;;;;;241.32;120.15;;;;;;;;;;4994279;28;20426;-64
2022/01/17 07:42:41;;;;;;;299.63;140.95;;;;;;;;;;4994356;28;20029;-63
2022/01/17 07:45:14;;;;;;;319.50;148.07;;;;;;;;;;4993980;28;20471;-63
2022/01/17 07:47:44;;;;;;;300.23;140.13;;;;;;;;;;4994844;28;20052;-63
2022/01/17 07:50:18;;;;;;;277.40;138.23;;;;;;;;;;4994307;28;20030;-64
2022/01/17 07:52:44;;;;;;;301.67;151.55;;;;;;;;;;4994980;28;20026;-62
2022/01/17 07:55:11;;;;;;;294.98;145.05;;;;;;;;;;4994619;28;20026;-65
2022/01/17 07:57:38;;;;;;;280.73;140.20;;;;;;;;;;4994296;28;20029;-62
2022/01/17 08:00:08;;;;;;;286.40;141.77;;;;;;;;;;4994076;28;20472;-64
2022/01/17 08:02:34;;;;;;;276.52;141.75;;;;;;;;;;4993924;28;20026;-66
2022/01/17 08:05:01;;;;;;;231.40;117.32;;;;;;;;;;4993786;28;20031;-64
2022/01/17 08:07:31;;;;;;;192.93;92.43;;;;;;;;;;4993786;28;20023;-64
2022/01/17 08:09:57;;;;;;;186.68;89.53;;;;;;;;;;4994188;28;20109;-63
2022/01/17 08:12:23;;;;;;;166.05;82.68;;;;;;;;;;4992404;28;20030;-63
2022/01/17 08:14:49;;;;;;;154.18;74.30;;;;;;;;;;4992002;28;20545;-62
2022/01/17 08:17:16;;;;;;;128.43;64.97;;;;;;;;;;4991639;28;20022;-62
2022/01/17 08:19:42;;;;;;;135.35;64.05;;;;;;;;;;4991891;28;20101;-63
2022/01/17 08:22:08;;;;;;;113.97;54.10;;;;;;;;;;4992321;28;20026;-62
2022/01/17 08:24:35;;;;;;;116.50;52.28;;;;;;;;;;4993507;28;20026;-63
2022/01/17 08:27:02;;;;;;;112.10;52.92;;;;;;;;;;4996639;28;20030;-63
2022/01/17 08:29:28;;;;;;;103.30;49.83;;;;;;;;;;4997759;28;20491;-63
2022/01/17 08:31:55;;;;;;;95.97;50.15;;;;;;;;;;4997348;28;20026;-63
2022/01/17 08:34:22;;;;;;;109.50;51.28;;;;;;;;;;4997767;28;20026;-64
2022/01/17 08:36:48;;;;;;;101.95;49.95;;;;;;;;;;4997452;28;20398;-64
2022/01/17 08:39:15;;;;;;;109.68;50.53;;;;;;;;;;4997351;28;20161;-62
2022/01/17 08:41:42;;;;;;;98.85;46.58;;;;;;;;;;4997766;28;20023;-63
2022/01/17 08:44:09;;;;;;;104.90;48.97;;;;;;;;;;4996983;28;20029;-64
2022/01/17 08:46:36;;;;;;;90.30;45.72;;;;;;;;;;4997475;28;20026;-63
2022/01/17 08:49:02;;;;;;;93.40;47.85;;;;;;;;;;4997243;28;20463;-63
2022/01/17 08:51:28;;;;;;;95.97;48.40;;;;;;;;;;4997392;28;20034;-64
2022/01/17 08:53:54;;;;;;;93.35;46.95;;;;;;;;;;4995514;28;20029;-63
2022/01/17 08:56:20;;;;;;;86.93;44.90;;;;;;;;;;4996831;28;20058;-65
2022/01/17 08:58:47;;;;;;;70.93;36.42;;;;;;;;;;4997328;28;20023;-65
2022/01/17 09:01:13;;;;;;;73.28;35.88;;;;;;;;;;4996446;28;20033;-63
2022/01/17 09:03:40;;;;;;;72.65;36.42;;;;;;;;;;4997090;28;20034;-63
2022/01/17 09:06:06;;;;;;;78.60;38.78;;;;;;;;;;4997089;28;20501;-64
2022/01/17 09:08:32;;;;;;;74.80;38.17;;;;;;;;;;4997083;28;20062;-63
2022/01/17 09:10:59;;;;;;;81.50;40.08;;;;;;;;;;4996973;28;20121;-65
2022/01/17 09:13:26;;;;;;;76.65;40.17;;;;;;;;;;4997333;28;20027;-64
2022/01/17 09:15:53;;;;;;;82.95;40.70;;;;;;;;;;4996581;28;20034;-63
2022/01/17 09:18:20;;;;;;;78.65;39.50;;;;;;;;;;4997200;28;20029;-63
2022/01/17 09:20:47;;;;;;;70.70;36.90;;;;;;;;;;4997119;28;20406;-62
2022/01/17 09:23:14;;;;;;;75.90;37.65;;;;;;;;;;4996819;28;20014;-64
2022/01/17 09:25:41;;;;;;;76.25;37.42;;;;;;;;;;4997180;28;20100;-65
2022/01/17 09:28:07;;;;;;;85.25;39.97;;;;;;;;;;4996691;28;20441;-62
2022/01/17 09:30:34;;;;;;;72.72;36.58;;;;;;;;;;4996639;28;20032;-62
2022/01/17 09:33:00;;;;;;;76.47;36.42;;;;;;;;;;4997631;28;20022;-63
2022/01/17 09:35:26;;;;;;;74.97;38.53;;;;;;;;;;4996620;28;20026;-62
2022/01/17 09:37:53;;;;;;;77.22;41.25;;;;;;;;;;4996106;28;20026;-64
2022/01/17 09:40:19;;;;;;;73.47;37.10;;;;;;;;;;4996452;28;20542;-64
2022/01/17 09:42:46;;;;;;;65.00;32.75;;;;;;;;;;4996381;28;20027;-62
2022/01/17 09:45:14;;;;;;;68.93;33.80;;;;;;;;;;4997191;28;20474;-61
2022/01/17 09:47:41;;;;;;;75.85;37.20;;;;;;;;;;4996246;28;20027;-63
2022/01/17 09:50:18;;;;;;;66.30;36.25;;;;;;;;;;4995928;28;20026;-64
2022/01/17 09:52:49;;;;;;;70.72;37.40;;;;;;;;;;4996508;28;20065;-62
2022/01/17 09:55:23;;;;;;;69.15;35.97;;;;;;;;;;4996335;28;20033;-63
2022/01/17 09:57:51;;;;;;;70.97;37.35;;;;;;;;;;4995591;28;20022;-62
2022/01/17 10:00:18;;;;;;;69.80;37.78;;;;;;;;;;4994505;28;20030;-65
2022/01/17 10:02:44;;;;;;;75.20;38.17;;;;;;;;;;4994322;28;20029;-63
2022/01/17 10:05:11;;;;;;;73.70;38.38;;;;;;;;;;4994617;28;20053;-64
2022/01/17 10:07:53;;;;;;;73.90;37.95;;;;;;;;;;4996236;28;20033;-61
2022/01/17 10:10:39;;;;;;;86.35;43.33;;;;;;;;;;4995604;28;20029;-65
2022/01/17 10:13:14;;;;;;;74.10;40.08;;;;;;;;;;4996226;28;20026;-65
2022/01/17 10:15:55;;;;;;;72.68;37.50;;;;;;;;;;4995423;28;20471;-61
2022/01/17 10:18:34;;;;;;;77.95;39.95;;;;;;;;;;4995651;28;20030;-63
2022/01/17 10:21:06;;;;;;;70.68;37.67;;;;;;;;;;4993704;28;20022;-62
2022/01/17 10:37:11;;;;;;;52.22;29.50;;;;;;;;;;4994863;28;20100;-65
2022/01/17 10:39:51;;;;;;;48.15;28.05;;;;;;;;;;4995034;28;20030;-62
2022/01/17 10:42:23;;;;;;;49.63;30.67;;;;;;;;;;4995469;28;20481;-63
2022/01/17 10:44:52;;;;;;;57.40;33.88;;;;;;;;;;4995359;28;20038;-63
2022/01/17 10:47:20;;;;;;;58.47;33.92;;;;;;;;;;4977849;28;20037;-63
2022/01/17 10:49:53;;;;;;;54.33;33.38;;;;;;;;;;4994179;28;20440;-64
2022/01/17 10:52:38;;;;;;;51.65;31.30;;;;;;;;;;4994808;28;20375;-63
2022/01/17 10:55:07;;;;;;;52.63;30.48;;;;;;;;;;4994423;28;20030;-63
2022/01/17 10:57:34;;;;;;;46.63;30.92;;;;;;;;;;4994577;28;20015;-62
2022/01/17 11:00:00;;;;;;;51.95;30.73;;;;;;;;;;4994520;28;20023;-64
2022/01/17 11:02:34;;;;;;;53.80;30.92;;;;;;;;;;4995245;28;20038;-66
2022/01/17 11:05:03;;;;;;;52.25;30.85;;;;;;;;;;4994693;28;20027;-64
2022/01/17 11:10:45;;;;;;;57.28;35.92;;;;;;;;;;4972698;28;20127;-65
2022/01/17 11:13:15;;;;;;;56.57;34.50;;;;;;;;;;4993469;28;20586;-62
2022/01/17 11:15:44;;;;;;;55.30;32.20;;;;;;;;;;4994373;28;20089;-63
2022/01/17 11:18:18;;;;;;;56.35;31.80;;;;;;;;;;4976382;28;20026;-63
2022/01/17 11:20:45;;;;;;;61.42;34.45;;;;;;;;;;4994400;28;20034;-62
2022/01/17 11:23:11;;;;;;;54.00;32.72;;;;;;;;;;4994075;28;20518;-62
2022/01/17 11:25:42;;;;;;;49.92;31.13;;;;;;;;;;4993018;28;20049;-62
2022/01/17 11:28:09;;;;;;;61.20;36.28;;;;;;;;;;4993416;28;20053;-63
2022/01/17 11:30:37;;;;;;;57.42;35.78;;;;;;;;;;4994577;28;20372;-64
2022/01/17 11:33:04;;;;;;;51.20;33.45;;;;;;;;;;4994566;28;20027;-63
2022/01/17 11:35:31;;;;;;;54.95;33.50;;;;;;;;;;4993938;28;20057;-63
2022/01/17 11:38:00;;;;;;;54.00;31.95;;;;;;;;;;4994491;28;20028;-62
2022/01/17 11:40:30;;;;;;;50.17;32.35;;;;;;;;;;4994221;28;20101;-63
2022/01/17 11:42:59;;;;;;;56.17;36.60;;;;;;;;;;4994100;28;20026;-64
2022/01/17 11:45:57;;;;;;;71.18;41.47;;;;;;;;;;4994198;28;20492;-63
2022/01/17 11:48:29;;;;;;;69.55;41.50;;;;;;;;;;4994066;28;20084;-62
2022/01/17 11:50:57;;;;;;;62.60;41.35;;;;;;;;;;4994086;28;20121;-64
2022/01/17 11:53:23;;;;;;;66.10;42.15;;;;;;;;;;4994298;28;20110;-64
2022/01/17 11:55:51;;;;;;;63.67;41.72;;;;;;;;;;4993740;28;20114;-63
2022/01/17 11:58:21;;;;;;;70.70;43.58;;;;;;;;;;4994268;28;20018;-63
2022/01/17 12:00:49;;;;;;;76.88;44.03;;;;;;;;;;4993636;28;20053;-63
2022/01/17 12:03:20;;;;;;;65.47;43.10;;;;;;;;;;4994025;28;20022;-64
2022/01/17 12:05:46;;;;;;;;;;;;;;;;;;4994520;28;20396;-64
2022/01/17 12:08:15;;;;;;;64.03;39.90;;;;;;;;;;4993698;28;19924;-62
2022/01/17 12:10:44;;;;;;;57.63;38.58;;;;;;;;;;4975646;28;20464;-63
2022/01/17 12:13:14;;;;;;;56.03;35.10;;;;;;;;;;4992263;28;20054;-63
2022/01/17 12:16:13;;;;;;;53.03;35.05;;;;;;;;;;4992229;28;20034;-63
2022/01/17 12:18:39;;;;;;;46.00;31.65;;;;;;;;;;4978690;28;20363;-62
2022/01/17 12:21:28;;;;;;;46.75;30.23;;;;;;;;;;4994038;28;20436;-63
2022/01/17 12:24:13;;;;;;;63.50;39.72;;;;;;;;;;4993941;28;20034;-62
2022/01/17 12:26:39;;;;;;;50.65;32.65;;;;;;;;;;4994029;28;20037;-62
2022/01/17 12:29:05;;;;;;;24.80;16.83;;;;;;;;;;4993800;28;20026;-64
2022/01/17 12:31:47;;;;;;;27.67;16.58;;;;;;;;;;4993853;28;20034;-63
2022/01/17 12:34:18;;;;;;;20.58;12.32;;;;;;;;;;4993685;28;20052;-66
2022/01/17 12:36:46;;;;;;;11.95;7.55;;;;;;;;;;4994052;28;20025;-62
2022/01/17 12:39:23;;;;;;;8.85;5.70;;;;;;;;;;4993679;28;20045;-63
2022/01/17 12:41:52;;;;;;;10.60;7.43;;;;;;;;;;4977205;28;20026;-62
2022/01/17 12:44:18;;;;;;;10.00;5.30;;;;;;;;;;4993742;28;20038;-64
2022/01/17 12:46:45;;;;;;;8.27;5.65;;;;;;;;;;4993989;28;20104;-64
2022/01/17 12:49:12;;;;;;;9.80;5.35;;;;;;;;;;4993622;28;20022;-65
2022/01/17 12:51:42;;;;;;;6.93;4.85;;;;;;;;;;4993911;28;20045;-64
2022/01/17 12:54:10;;;;;;;11.60;6.53;;;;;;;;;;4993592;28;20033;-63
2022/01/17 12:56:36;;;;;;;9.40;5.88;;;;;;;;;;4993580;28;20022;-63
2022/01/17 12:59:02;;;;;;;10.05;5.47;;;;;;;;;;4993504;28;20463;-65
2022/01/17 13:01:30;;;;;;;10.10;6.53;;;;;;;;;;4993776;28;20374;-64
2022/01/17 13:04:04;;;;;;;11.35;7.35;;;;;;;;;;4993580;28;20185;-63
2022/01/17 13:06:31;;;;;;;13.63;7.95;;;;;;;;;;4993664;28;20072;-64
2022/01/17 13:08:59;;;;;;;15.40;8.55;;;;;;;;;;4994408;28;20047;-65
2022/01/17 13:11:26;;;;;;;15.57;8.63;;;;;;;;;;4993945;28;20018;-66
2022/01/17 13:14:01;;;;;;;18.55;10.43;;;;;;;;;;4995691;28;20037;-64
2022/01/17 13:16:30;;;;;;;14.50;8.43;;;;;;;;;;4997772;28;20018;-64
2022/01/17 13:18:58;;;;;;;15.73;8.57;;;;;;;;;;4996843;28;20022;-63
2022/01/17 13:21:25;;;;;;;21.27;11.82;;;;;;;;;;4997179;28;20018;-64
2022/01/17 13:23:57;;;;;;;16.23;10.60;;;;;;;;;;4997205;28;20023;-65
2022/01/17 13:26:25;;;;;;;25.35;14.38;;;;;;;;;;4996713;28;20023;-64
2022/01/17 13:28:52;;;;;;;23.50;13.82;;;;;;;;;;4996736;28;20023;-64
2022/01/17 13:31:26;;;;;;;23.95;14.40;;;;;;;;;;4996930;28;20022;-64
2022/01/17 13:33:53;;;;;;;25.35;14.68;;;;;;;;;;4996555;28;20018;-66
2022/01/17 13:36:24;;;;;;;24.05;14.40;;;;;;;;;;4996788;28;20022;-65
2022/01/17 13:38:50;;;;;;;;;;;;;;;;;;4997790;28;20054;-63
2022/01/17 13:41:26;;;;;;;22.13;12.02;;;;;;;;;;4996088;28;19910;-63
2022/01/17 13:43:52;;;;;;;18.60;11.40;;;;;;;;;;4996643;28;20026;-63
2022/01/17 13:46:19;;;;;;;23.27;12.13;;;;;;;;;;4996705;28;20022;-63
2022/01/17 13:48:46;;;;;;;20.55;12.27;;;;;;;;;;4996035;28;20060;-64
2022/01/17 13:51:12;;;;;;;23.83;14.45;;;;;;;;;;4996817;28;20021;-64
2022/01/17 13:53:38;;;;;;;27.73;13.00;;;;;;;;;;4996300;28;20026;-63
2022/01/17 13:56:06;;;;;;;15.55;10.27;;;;;;;;;;4995945;28;20037;-63
2022/01/17 13:58:34;;;;;;;20.50;11.45;;;;;;;;;;4996503;28;20023;-64
2022/01/17 14:01:00;;;;;;;23.05;11.80;;;;;;;;;;4996113;28;20474;-63
2022/01/17 14:03:32;;;;;;;26.05;13.65;;;;;;;;;;4996146;28;20137;-64
2022/01/17 14:06:06;;;;;;;29.48;14.65;;;;;;;;;;4995848;28;20022;-63
2022/01/17 14:08:38;;;;;;;25.35;13.35;;;;;;;;;;4995654;28;20062;-64
2022/01/17 14:11:06;;;;;;;29.42;13.75;;;;;;;;;;4996223;28;20031;-65
2022/01/17 14:13:32;;;;;;;27.10;14.60;;;;;;;;;;4996022;28;20057;-62
2022/01/17 14:16:22;;;;;;;30.42;14.68;;;;;;;;;;4995943;28;20375;-62
2022/01/17 14:19:13;;;;;;;30.65;15.32;;;;;;;;;;4995394;28;20069;-63
2022/01/17 14:21:41;;;;;;;26.13;14.30;;;;;;;;;;4995394;28;20019;-63
2022/01/17 14:24:12;;;;;;;20.92;10.82;;;;;;;;;;4995259;28;20034;-65
2022/01/17 14:26:39;;;;;;;16.95;8.80;;;;;;;;;;4995854;28;20023;-63
2022/01/17 14:29:12;;;;;;;19.45;9.07;;;;;;;;;;4995482;28;20072;-62
2022/01/17 14:31:45;;;;;;;19.10;9.55;;;;;;;;;;4995401;28;20046;-64
2022/01/17 14:34:44;;;;;;;21.63;10.38;;;;;;;;;;4995444;28;20118;-66
2022/01/17 14:37:16;;;;;;;16.83;8.20;;;;;;;;;;4994985;28;20050;-63
2022/01/17 14:39:44;;;;;;;20.52;10.77;;;;;;;;;;4978347;28;20026;-65
2022/01/17 14:42:15;;;;;;;19.48;11.55;;;;;;;;;;4995557;28;20022;-64
2022/01/17 14:44:44;;;;;;;25.83;13.95;;;;;;;;;;4994797;28;20048;-63
2022/01/17 14:47:15;;;;;;;28.92;15.88;;;;;;;;;;4995436;28;20033;-65
2022/01/17 14:49:42;;;;;;;;;;;;;;;;;;4995983;28;20057;-65
2022/01/17 14:52:18;;;;;;;32.53;17.45;;;;;;;;;;4994850;28;19906;-65
2022/01/17 14:54:53;;;;;;;32.13;17.20;;;;;;;;;;4995850;28;20029;-64
2022/01/17 15:00:12;;;;;;;35.03;18.77;;;;;;;;;;4995309;28;20081;-63